Time;durP1;ratioP1;P1;durP2;ratioP2;P2;SDS_P1;SDS_P2;PMS_P1;PMS_P2;Temp;Humidity;BMP_temperature;BMP_pressure;BME280_temperature;BME280_humidity;BME280_pressure;Samples;Min_cycle;Max_cycle;Signal;HPM_P1;HPM_P2
2022/08/08 00:00:52;;;;;;;50.70;33.03;;;;;;;20.38;79.97;99989.38;4975207;23;20594;-93
2022/08/08 00:12:00;;;;;;;43.05;26.48;;;;;;;20.39;79.40;99996.53;5067347;23;20057;-95
2022/08/08 00:15:02;;;;;;;42.90;27.77;;;;;;;20.39;79.80;100010.41;4955215;23;20069;-95
2022/08/08 00:18:02;;;;;;;46.90;27.55;;;;;;;20.35;79.43;100001.19;4972889;23;20113;-96
2022/08/08 00:21:10;;;;;;;41.05;24.85;;;;;;;20.30;79.22;100001.50;4949259;23;20057;-96
2022/08/08 02:11:10;;;;;;;39.30;24.30;;;;;;;20.43;77.84;100008.53;6258996;22;20032;-92
2022/08/08 02:24:18;;;;;;;;;;;;;;;20.45;78.74;100013.72;6217120;22;19970;-92
2022/08/08 02:27:20;;;;;;;49.83;25.80;;;;;;;20.43;78.46;100019.66;6170843;23;20010;-95
2022/08/08 02:30:28;;;;;;;41.80;24.63;;;;;;;20.34;78.72;99996.81;6189703;22;20027;-92
2022/08/08 02:33:23;;;;;;;49.30;26.25;;;;;;;20.50;78.58;100019.00;6158611;22;20035;-96
2022/08/08 02:36:26;;;;;;;45.15;25.25;;;;;;;20.49;77.72;100012.63;6175305;22;20368;-96
2022/08/08 02:39:27;;;;;;;39.28;23.67;;;;;;;20.48;77.60;100013.78;6163943;23;20392;-96
2022/08/08 02:46:30;;;;;;;51.75;25.42;;;;;;;20.58;78.33;100023.56;6255751;22;20035;-93
2022/08/08 02:52:35;;;;;;;47.30;24.83;;;;;;;20.62;78.48;100025.25;6240373;22;20015;-95
2022/08/08 02:55:37;;;;;;;49.28;27.08;;;;;;;20.60;78.20;100033.16;6222466;23;20012;-96
2022/08/08 03:02:40;;;;;;;41.60;24.40;;;;;;;20.56;77.17;100042.56;6188460;23;20086;-92
2022/08/08 03:08:45;;;;;;;48.72;27.17;;;;;;;20.67;76.76;100049.16;6274512;22;20016;-96
2022/08/08 03:36:01;;;;;;;57.92;31.90;;;;;;;20.60;78.23;100074.03;6204597;22;20113;31
2022/08/08 03:51:10;;;;;;;56.17;32.13;;;;;;;20.73;77.43;100078.28;6201600;23;20040;-93
2022/08/08 04:05:49;;;;;;;55.58;31.08;;;;;;;20.67;78.11;100085.28;6254043;22;20057;-90
2022/08/08 04:21:25;;;;;;;58.38;29.88;;;;;;;20.84;77.57;100093.22;6201468;22;20070;-92
2022/08/08 04:24:29;;;;;;;53.88;30.10;;;;;;;20.80;77.58;100097.91;6185785;23;20051;-91
2022/08/08 04:27:27;;;;;;;52.33;29.42;;;;;;;20.58;77.94;100040.22;6129066;23;20117;-96
2022/08/08 04:33:35;;;;;;;57.53;26.25;;;;;;;20.62;76.37;100053.03;6141082;23;20025;-96
2022/08/08 04:36:05;;;;;;;52.63;24.63;;;;;;;20.75;75.87;100078.72;6173623;23;20021;-96
2022/08/08 04:38:35;;;;;;;42.03;23.58;;;;;;;20.80;75.71;100089.56;6149012;23;20028;-94
2022/08/08 04:41:26;;;;;;;;;;;;;;;21.00;75.71;100109.03;6149916;23;20021;-90
2022/08/08 05:04:24;;;;;;;40.85;21.35;;;;;;;21.35;72.50;100136.81;6312427;22;20049;-92
2022/08/08 05:12:25;;;;;;;33.60;18.02;;;;;;;21.71;71.02;100132.78;6306062;22;20444;-90
2022/08/08 05:14:52;;;;;;;52.38;25.05;;;;;;;21.43;70.04;100109.97;6227551;22;20039;-92
2022/08/08 05:17:21;;;;;;;;;;;;;;;21.57;70.49;100138.06;6280657;22;20471;-93
2022/08/08 05:20:03;;;;;;;36.80;19.83;;;;;;;21.28;70.46;100106.84;6258271;22;19965;-94
2022/08/08 05:22:34;;;;;;;30.85;17.50;;;;;;;21.32;70.87;100088.28;6286751;22;20015;-93
2022/08/08 05:25:03;;;;;;;42.42;16.45;;;;;;;21.57;69.48;100124.97;6231802;22;20021;-90
2022/08/08 05:28:22;;;;;;;;;;;;;;;21.59;68.86;100146.88;6287940;22;20019;-94
2022/08/08 05:31:26;;;;;;;53.50;17.50;;;;;;;21.15;69.47;100082.34;6259666;22;19918;-94
2022/08/08 05:48:24;;;;;;;46.28;18.02;;;;;;;21.98;69.44;100161.50;6142879;23;20403;-96
2022/08/08 05:50:55;;;;;;;58.50;21.50;;;;;;;21.49;67.45;100067.59;6176572;23;20507;-93
2022/08/08 05:54:08;;;;;;;48.28;18.40;;;;;;;21.75;67.95;100111.38;6284080;22;20076;-96
2022/08/08 05:57:01;;;;;;;58.60;19.92;;;;;;;21.57;66.83;100093.56;6206105;22;20086;-93
2022/08/08 06:11:46;;;;;;;61.22;20.48;;;;;;;21.77;67.56;100150.78;6216302;23;20047;-95
2022/08/08 06:14:16;;;;;;;81.82;22.27;;;;;;;21.88;67.43;100150.97;6168954;23;20021;-95
2022/08/08 06:16:51;;;;;;;56.10;19.67;;;;;;;22.02;67.13;100150.47;6246265;23;20039;-95
2022/08/08 06:19:32;;;;;;;95.88;22.80;;;;;;;22.26;68.58;100177.19;6220307;23;20040;-91
2022/08/08 06:22:02;;;;;;;49.83;21.90;;;;;;;22.00;66.70;100133.31;6194588;23;20024;-95
2022/08/08 06:25:04;;;;;;;44.70;19.45;;;;;;;22.29;66.55;100170.88;6218637;23;20027;-94
2022/08/08 06:31:34;;;;;;;44.50;20.95;;;;;;;22.43;65.33;100175.88;6214830;23;20016;-93
2022/08/08 06:34:33;;;;;;;45.05;21.15;;;;;;;22.49;65.27;100199.47;6214875;23;20021;-89
2022/08/08 06:47:47;;;;;;;97.43;27.40;;;;;;;22.80;64.04;100186.41;6287775;22;20062;-92
2022/08/08 06:50:40;;;;;;;79.30;28.83;;;;;;;22.72;63.23;100205.81;6186578;22;20019;-95
2022/08/08 06:57:31;;;;;;;47.53;24.88;;;;;;;22.27;63.21;100115.50;6285778;22;20065;-94
2022/08/08 07:00:17;;;;;;;82.90;28.27;;;;;;;22.56;63.87;100166.13;6210934;22;20019;-94
2022/08/08 07:03:40;;;;;;;79.03;28.52;;;;;;;22.81;64.09;100207.53;6230110;23;20026;-95
2022/08/08 07:06:09;;;;;;;120.30;31.38;;;;;;;22.60;64.31;100136.34;6223995;23;20110;-93
2022/08/08 07:08:45;;;;;;;81.47;31.75;;;;;;;22.73;62.91;100134.94;6200951;23;20016;-90
2022/08/08 07:11:41;;;;;;;79.57;30.20;;;;;;;23.17;62.59;100195.75;6200997;23;20461;-93
2022/08/08 07:14:53;;;;;;;121.55;30.42;;;;;;;22.52;62.30;100134.63;6196493;23;20023;-90
2022/08/08 07:17:24;;;;;;;88.07;29.23;;;;;;;22.55;62.56;100136.69;6221501;23;20019;-86
2022/08/08 07:20:08;;;;;;;94.05;32.97;;;;;;;22.41;62.07;100117.72;6195188;23;20541;-91
2022/08/08 07:23:17;;;;;;;75.95;31.00;;;;;;;23.09;62.06;100196.84;6198927;23;20016;-88
2022/08/08 07:25:45;;;;;;;66.20;27.25;;;;;;;22.64;61.46;100119.66;6201406;23;20024;-92
2022/08/08 07:31:42;;;;;;;81.70;28.70;;;;;;;23.19;61.30;100193.41;6319237;22;20026;-92
2022/08/08 07:34:16;;;;;;;68.50;26.90;;;;;;;23.18;60.76;100199.38;6289914;22;20019;-89
2022/08/08 07:39:22;;;;;;;65.00;26.20;;;;;;;22.94;61.63;100151.22;6311868;22;20015;-95
2022/08/08 07:41:50;;;;;;;53.60;25.65;;;;;;;22.88;61.31;100107.28;6250765;22;20079;-94
2022/08/08 07:47:43;;;;;;;71.93;25.35;;;;;;;23.63;59.81;100203.94;6215773;22;20022;-89
2022/08/08 07:50:13;;;;;;;69.15;24.67;;;;;;;23.23;59.48;100148.03;6275060;22;20027;-90
2022/08/08 07:52:59;;;;;;;70.80;25.98;;;;;;;23.37;59.72;100168.53;6236768;23;20107;-91
2022/08/08 07:59:34;;;;;;;66.78;27.15;;;;;;;23.40;60.06;100201.25;6210469;23;20024;-92
2022/08/08 08:02:25;;;;;;;71.63;27.92;;;;;;;23.35;59.53;100189.66;6259032;23;20000;-89
2022/08/08 08:05:05;;;;;;;75.82;26.92;;;;;;;23.06;59.48;100138.25;6255548;23;20020;-89
2022/08/08 08:08:23;;;;;;;66.40;27.10;;;;;;;23.61;59.80;100203.56;6228559;23;20026;-91
2022/08/08 08:10:56;;;;;;;61.33;25.95;;;;;;;23.43;60.00;100208.09;6188921;23;20021;-88
2022/08/08 08:13:55;;;;;;;73.72;27.90;;;;;;;23.53;60.09;100207.41;6159244;23;20016;-90
2022/08/08 08:16:25;;;;;;;65.43;27.10;;;;;;;23.31;59.03;100160.88;6236757;22;20022;-89
2022/08/08 08:18:59;;;;;;;80.90;26.88;;;;;;;23.04;59.81;100119.06;6281538;22;20034;-95
2022/08/08 08:21:51;;;;;;;94.90;27.38;;;;;;;23.21;59.96;100187.44;6283247;22;20103;-90
2022/08/08 08:24:52;;;;;;;69.55;24.52;;;;;;;23.03;59.76;100164.88;6225561;23;20082;-94
2022/08/08 08:27:21;;;;;;;53.67;24.33;;;;;;;23.03;60.28;100156.53;6251008;23;20019;-95
2022/08/08 08:30:47;;;;;;;46.80;23.27;;;;;;;23.42;59.06;100212.88;6254526;22;20016;-92
2022/08/08 08:34:19;;;;;;;71.25;22.35;;;;;;;23.48;59.08;100207.75;6251088;23;20389;-95
2022/08/08 08:36:50;;;;;;;54.85;22.05;;;;;;;22.90;59.15;100124.44;6223388;23;20024;-95
2022/08/08 08:39:33;;;;;;;52.83;21.70;;;;;;;23.04;59.87;100182.44;6244127;23;20020;-87
2022/08/08 08:42:20;;;;;;;44.60;22.20;;;;;;;23.10;60.29;100212.41;6219671;23;20051;-94
2022/08/08 08:44:47;;;;;;;60.97;21.88;;;;;;;23.13;59.56;100203.28;6131580;23;20478;-93
2022/08/08 08:47:19;;;;;;;58.28;20.88;;;;;;;22.95;59.97;100133.31;6107198;23;20049;-88
2022/08/08 08:50:00;;;;;;;56.55;19.85;;;;;;;23.34;59.93;100157.31;6156109;23;20017;-88
2022/08/08 08:53:12;;;;;;;59.28;19.45;;;;;;;23.86;60.01;100211.44;6107843;23;20021;-87
2022/08/08 08:55:54;;;;;;;98.07;26.45;;;;;;;23.13;58.51;100178.19;6131187;23;20024;-88
2022/08/08 09:02:23;;;;;;;68.40;25.83;;;;;;;23.48;60.22;100206.94;6190232;23;20040;-91
2022/08/08 09:09:42;;;;;;;45.83;24.15;;;;;;;23.39;59.40;100207.25;6161734;23;20459;-91
2022/08/08 09:13:23;;;;;;;75.25;24.75;;;;;;;23.49;58.88;100202.97;6186044;23;20035;-90
2022/08/08 09:16:06;;;;;;;49.15;24.23;;;;;;;23.31;58.71;100194.34;6186824;23;20091;-89
2022/08/08 09:18:42;;;;;;;56.53;22.67;;;;;;;23.08;58.86;100142.25;6162207;23;20016;-90
2022/08/08 09:21:41;;;;;;;69.40;25.05;;;;;;;23.40;58.25;100158.59;6169359;23;20016;-90
2022/08/08 09:24:24;;;;;;;64.60;25.15;;;;;;;23.31;58.42;100161.69;6170125;23;20099;-91
2022/08/08 09:27:41;;;;;;;53.13;24.30;;;;;;;23.68;57.49;100209.25;6160504;23;20044;-89
2022/08/08 09:30:54;;;;;;;80.93;27.33;;;;;;;23.57;58.12;100211.03;6185879;23;20020;-94
2022/08/08 09:33:35;;;;;;;65.35;24.63;;;;;;;23.28;57.98;100142.94;6185707;23;20052;-86
2022/08/08 09:36:08;;;;;;;53.47;23.23;;;;;;;23.55;58.94;100162.41;6165115;23;20021;-95
2022/08/08 09:39:04;;;;;;;75.65;24.85;;;;;;;23.75;57.00;100190.97;6191201;23;20014;-86
2022/08/08 09:42:29;;;;;;;52.60;23.10;;;;;;;24.10;58.08;100216.50;6115678;23;20031;-87
2022/08/08 09:45:11;;;;;;;48.40;22.83;;;;;;;24.10;57.44;100207.31;6188342;23;20053;-90
2022/08/08 09:47:57;;;;;;;46.22;21.52;;;;;;;24.11;57.77;100215.31;6189039;23;20400;-90
2022/08/08 09:51:16;;;;;;;51.85;23.17;;;;;;;24.39;57.54;100205.59;6190304;23;20522;-95
2022/08/08 10:02:21;;;;;;;44.28;22.38;;;;;;;24.36;55.85;100206.38;6186080;23;20021;-87
2022/08/08 10:07:20;;;;;;;44.70;25.27;;;;;;;24.19;54.88;100168.69;6187534;23;20013;-94
2022/08/08 10:09:53;;;;;;;42.85;23.27;;;;;;;24.25;56.01;100199.91;6162717;23;20459;-89
2022/08/08 10:12:37;;;;;;;39.10;23.10;;;;;;;24.21;55.60;100171.13;6162117;23;20016;-93
2022/08/08 10:15:07;;;;;;;45.92;23.98;;;;;;;24.33;55.21;100165.22;6187247;23;20056;-94
2022/08/08 10:17:55;;;;;;;43.10;21.85;;;;;;;24.72;55.73;100212.31;6186558;23;20016;-89
2022/08/08 10:20:23;;;;;;;45.92;23.08;;;;;;;24.38;54.74;100160.09;6184167;23;20024;-95
2022/08/08 10:23:03;;;;;;;45.80;21.50;;;;;;;24.61;55.33;100190.66;6185561;23;20025;-93
2022/08/08 10:25:46;;;;;;;44.28;23.27;;;;;;;24.57;54.16;100184.25;6161232;23;20028;-88
2022/08/08 10:28:16;;;;;;;48.90;22.27;;;;;;;24.58;54.97;100177.47;6185935;23;20016;-89
2022/08/08 10:35:11;;;;;;;44.72;22.27;;;;;;;24.52;55.72;100158.63;6191101;23;20048;-89
2022/08/08 10:38:04;;;;;;;35.33;20.92;;;;;;;24.90;54.73;100213.28;6189315;23;20017;-95
2022/08/08 10:40:37;;;;;;;40.72;20.02;;;;;;;24.89;55.30;100211.66;6192800;23;20017;-89
2022/08/08 10:43:16;;;;;;;35.47;19.40;;;;;;;24.83;55.20;100210.41;6166409;23;20017;-94
2022/08/08 10:45:52;;;;;;;42.10;21.48;;;;;;;24.46;56.40;100141.41;6216066;23;20100;-94
2022/08/08 10:48:28;;;;;;;39.72;20.52;;;;;;;24.94;54.61;100196.50;6211562;23;20040;-89
2022/08/08 10:51:21;;;;;;;38.70;20.83;;;;;;;24.59;54.46;100153.09;6185382;23;20024;-94
2022/08/08 10:54:38;;;;;;;34.88;20.08;;;;;;;24.94;53.70;100205.69;6188980;23;20017;-90
2022/08/08 10:57:51;;;;;;;36.72;20.35;;;;;;;24.80;53.72;100198.00;6187581;23;20092;-90
2022/08/08 11:00:31;;;;;;;36.70;19.10;;;;;;;24.78;54.56;100180.00;6160366;23;20028;-89
2022/08/08 11:03:17;;;;;;;51.88;19.83;;;;;;;24.95;53.85;100200.91;6186333;23;20062;-94
2022/08/08 11:05:50;;;;;;;32.63;18.30;;;;;;;24.61;54.04;100156.31;6161391;23;20067;-95
2022/08/08 11:08:30;;;;;;;34.05;18.42;;;;;;;24.65;54.47;100203.88;6161617;23;20021;-90
2022/08/08 11:11:10;;;;;;;46.00;17.48;;;;;;;24.50;55.11;100189.78;6188938;23;20051;-89
2022/08/08 11:13:43;;;;;;;27.45;17.60;;;;;;;24.38;55.58;100204.00;6162458;23;20025;-94
2022/08/08 11:16:23;;;;;;;39.97;19.08;;;;;;;24.32;56.28;100208.34;6161464;23;20439;-92
2022/08/08 11:18:54;;;;;;;37.97;17.02;;;;;;;24.12;56.63;100180.59;6161113;23;20400;-88
2022/08/08 11:21:23;;;;;;;45.17;17.92;;;;;;;24.13;56.27;100182.19;6160146;23;20044;-89
2022/08/08 11:23:52;;;;;;;47.38;17.45;;;;;;;24.21;56.57;100205.44;6160183;23;20017;-91
2022/08/08 11:26:18;;;;;;;35.33;16.50;;;;;;;24.05;56.60;100186.13;6160152;23;20012;-92
2022/08/08 11:28:48;;;;;;;;;;;;;;;24.09;56.49;100198.13;6187817;23;20037;-91
2022/08/08 11:31:15;;;;;;;36.55;17.17;;;;;;;23.73;57.06;100173.78;6212365;23;19916;-91
2022/08/08 11:33:49;;;;;;;32.90;17.38;;;;;;;23.90;57.00;100212.28;6187648;23;20031;-88
2022/08/08 11:36:19;;;;;;;36.60;16.20;;;;;;;23.55;58.15;100157.59;6162590;23;20043;-88
2022/08/08 11:38:46;;;;;;;42.35;18.10;;;;;;;24.00;56.92;100208.78;6162157;23;20170;-88
2022/08/08 11:41:17;;;;;;;65.25;20.35;;;;;;;23.85;56.82;100190.28;6163669;23;20024;-94
2022/08/08 11:43:45;;;;;;;101.13;22.80;;;;;;;24.21;56.51;100201.84;6189560;23;20024;-89
2022/08/08 11:46:29;;;;;;;149.77;24.30;;;;;;;24.12;56.02;100194.56;6167418;23;20075;-93
2022/08/08 11:48:57;;;;;;;77.63;20.33;;;;;;;23.93;56.87;100158.44;6193421;23;20021;-94
2022/08/08 11:51:25;;;;;;;66.60;19.02;;;;;;;24.48;55.70;100210.91;6167139;23;20025;-92
2022/08/08 11:53:53;;;;;;;67.15;21.17;;;;;;;24.74;54.53;100204.34;6187219;23;20016;-87
2022/08/08 11:56:26;;;;;;;102.25;21.90;;;;;;;24.70;54.70;100195.13;6209769;23;20447;-89
2022/08/08 11:58:55;;;;;;;108.03;23.05;;;;;;;24.53;55.02;100194.56;6161316;23;20020;-93
2022/08/08 12:01:31;;;;;;;82.18;18.85;;;;;;;24.36;56.20;100192.41;6161288;23;20071;-94
2022/08/08 12:03:59;;;;;;;64.85;18.58;;;;;;;24.34;55.74;100198.38;6162244;23;20021;-88
2022/08/08 12:06:28;;;;;;;70.07;17.08;;;;;;;24.48;55.65;100208.91;6163084;23;20458;-88
2022/08/08 12:09:06;;;;;;;60.42;15.07;;;;;;;24.62;55.42;100205.44;6160715;23;20024;-94
2022/08/08 12:11:41;;;;;;;58.08;16.90;;;;;;;24.40;55.73;100201.63;6186695;23;20072;-94
2022/08/08 12:14:08;;;;;;;44.15;15.38;;;;;;;24.39;56.26;100194.44;6139275;23;20025;-89
2022/08/08 12:16:48;;;;;;;42.67;14.10;;;;;;;24.12;56.19;100168.63;6162345;23;20332;-86
2022/08/08 12:19:16;;;;;;;46.00;15.02;;;;;;;24.22;56.55;100178.31;6210354;23;20342;-87
2022/08/08 12:21:43;;;;;;;57.53;16.00;;;;;;;24.18;56.02;100211.00;6159217;23;20013;-87
2022/08/08 12:24:12;;;;;;;45.50;15.40;;;;;;;23.89;58.05;100205.88;6163889;23;20024;-94
2022/08/08 12:26:53;;;;;;;57.08;16.92;;;;;;;23.68;57.71;100177.75;6163418;23;20009;-89
2022/08/08 12:29:31;;;;;;;45.88;15.13;;;;;;;23.89;57.58;100182.75;6188881;23;20071;-95
2022/08/08 12:32:08;;;;;;;47.53;15.90;;;;;;;24.14;56.88;100194.19;6190123;23;20025;-94
2022/08/08 12:34:57;;;;;;;49.83;14.82;;;;;;;24.19;56.25;100204.22;6214236;23;20017;-93
2022/08/08 12:37:25;;;;;;;51.22;15.50;;;;;;;23.68;57.12;100147.03;6189671;23;20024;-94
2022/08/08 12:39:59;;;;;;;52.38;15.18;;;;;;;24.05;56.59;100202.88;6165427;23;20017;-94
2022/08/08 12:42:29;;;;;;;39.50;13.57;;;;;;;23.92;57.14;100193.16;6165126;23;20041;-94
2022/08/08 12:45:08;;;;;;;40.35;14.80;;;;;;;23.70;56.71;100197.69;6188425;23;20017;-90
2022/08/08 12:47:35;;;;;;;39.33;13.98;;;;;;;23.60;57.65;100181.59;6164508;23;20433;-90
2022/08/08 12:50:37;;;;;;;60.80;13.38;;;;;;;23.86;57.50;100205.84;6165990;23;20328;-93
2022/08/08 12:57:15;;;;;;;55.95;13.88;;;;;;;23.64;58.12;100205.59;6192014;23;20283;-93
2022/08/08 12:59:53;;;;;;;68.88;13.52;;;;;;;23.53;57.96;100175.91;6186887;23;20048;-91
2022/08/08 13:02:32;;;;;;;52.03;13.40;;;;;;;23.56;57.58;100184.34;6163694;23;20017;-87
2022/08/08 13:05:37;;;;;;;57.83;14.02;;;;;;;23.25;57.67;100142.88;6188804;23;20096;-90
2022/08/08 13:08:14;;;;;;;18.92;10.80;;;;;;;23.76;57.12;100206.53;6126243;23;20024;-90
2022/08/08 13:10:52;;;;;;;27.63;12.30;;;;;;;23.59;58.21;100199.53;6053363;23;20344;-87
2022/08/08 13:13:31;;;;;;;24.35;10.70;;;;;;;23.56;57.60;100203.06;6125396;23;20092;-89
2022/08/08 13:16:21;;;;;;;32.80;11.20;;;;;;;23.38;58.51;100197.28;6126941;23;20079;-84
2022/08/08 13:18:48;;;;;;;21.73;10.88;;;;;;;23.45;58.64;100209.31;6078425;23;20033;-87
2022/08/08 13:21:16;;;;;;;27.35;11.50;;;;;;;23.59;57.69;100207.91;6077142;23;20075;-86
2022/08/08 13:23:43;;;;;;;44.72;12.70;;;;;;;23.57;57.80;100205.47;6123682;23;20022;-89
2022/08/08 13:26:10;;;;;;;24.15;10.15;;;;;;;23.62;58.46;100213.53;6124590;23;20069;-92
2022/08/08 13:28:36;;;;;;;30.95;10.93;;;;;;;23.45;58.51;100197.34;6052794;23;20320;-92
2022/08/08 13:31:11;;;;;;;24.33;10.52;;;;;;;23.54;58.48;100214.63;6124570;23;20073;-87
2022/08/08 13:33:40;;;;;;;26.13;10.45;;;;;;;23.48;58.56;100218.94;6074934;23;20358;-88
2022/08/08 13:36:09;;;;;;;29.85;10.82;;;;;;;23.25;58.79;100179.16;6122427;23;20021;-90
2022/08/08 13:38:37;;;;;;;27.08;9.82;;;;;;;23.34;58.15;100210.34;6099838;23;20045;-91
2022/08/08 13:41:05;;;;;;;21.23;9.95;;;;;;;23.16;57.80;100196.16;6124842;23;20021;-92
2022/08/08 13:43:42;;;;;;;25.88;9.48;;;;;;;23.04;57.95;100180.44;6052854;23;20407;-92
2022/08/08 13:46:12;;;;;;;19.65;9.32;;;;;;;23.04;59.14;100225.06;6185584;23;20462;-86
2022/08/08 13:49:17;;;;;;;40.28;10.55;;;;;;;22.86;59.40;100193.28;6203941;23;20047;-87
2022/08/08 13:52:02;;;;;;;22.88;8.27;;;;;;;23.15;58.88;100214.09;6187868;23;20056;-92
2022/08/08 13:54:35;;;;;;;34.80;8.87;;;;;;;23.12;58.76;100212.84;6210176;23;20021;-89
2022/08/08 13:57:10;;;;;;;19.35;8.32;;;;;;;23.02;58.93;100224.66;6185513;23;20028;-90
2022/08/08 13:59:42;;;;;;;15.32;7.95;;;;;;;23.16;58.88;100221.25;6162732;23;20483;-85
2022/08/08 14:02:21;;;;;;;14.02;7.03;;;;;;;23.20;58.21;100199.78;6162820;23;20017;-93
2022/08/08 14:04:51;;;;;;;76.60;11.90;;;;;;;23.49;57.43;100214.94;6187085;23;20071;-89
2022/08/08 14:07:21;;;;;;;41.20;9.23;;;;;;;23.68;56.26;100195.28;6162606;23;20390;-88
2022/08/08 14:09:48;;;;;;;38.00;8.73;;;;;;;23.81;56.41;100220.97;6186952;23;20040;-86
2022/08/08 14:12:17;;;;;;;29.48;7.45;;;;;;;23.61;56.95;100202.75;6185015;23;20032;-92
2022/08/08 14:14:45;;;;;;;41.97;9.93;;;;;;;23.57;56.97;100204.66;6185811;23;20359;-87
2022/08/08 14:17:13;;;;;;;58.72;11.30;;;;;;;23.59;57.29;100199.53;6187083;23;20020;-87
2022/08/08 14:19:43;;;;;;;60.08;10.35;;;;;;;23.85;57.01;100209.84;6187830;23;20013;-90
2022/08/08 14:24:54;;;;;;;70.38;10.90;;;;;;;23.27;57.92;100197.09;6191982;23;20017;-93
2022/08/08 14:27:39;;;;;;;44.67;7.97;;;;;;;23.14;58.67;100210.47;6165165;23;20017;-93
2022/08/08 14:30:18;;;;;;;23.80;7.28;;;;;;;23.18;58.65;100224.50;6213263;23;20013;-88
2022/08/08 14:33:01;;;;;;;27.50;7.47;;;;;;;23.21;58.66;100226.50;6162355;23;20020;-89
2022/08/08 14:35:34;;;;;;;46.53;8.32;;;;;;;22.84;58.47;100151.03;6188347;23;20017;-88
2022/08/08 14:38:06;;;;;;;45.63;8.32;;;;;;;23.26;58.51;100214.22;6162629;23;20017;-92
2022/08/08 14:40:40;;;;;;;157.88;19.40;;;;;;;23.47;57.67;100203.34;6162270;23;20103;-88
2022/08/08 14:43:08;;;;;;;41.30;8.43;;;;;;;23.41;57.05;100188.13;6164196;23;20096;-91
2022/08/08 14:45:38;;;;;;;32.08;6.97;;;;;;;23.51;56.93;100214.56;6188665;23;20013;-94
2022/08/08 14:48:04;;;;;;;32.25;7.32;;;;;;;23.55;57.37;100202.28;6190001;23;20020;-93
2022/08/08 14:50:32;;;;;;;;;;;;;;;23.49;57.21;100208.56;6216491;23;20077;-89
2022/08/08 14:53:04;;;;;;;41.92;8.52;;;;;;;23.51;57.69;100207.00;6189961;23;19920;-88
2022/08/08 14:55:33;;;;;;;89.25;12.60;;;;;;;23.36;58.00;100219.16;6165318;23;20044;-93
2022/08/08 14:58:00;;;;;;;96.63;12.98;;;;;;;23.17;58.34;100204.13;6139605;23;20017;-89
2022/08/08 15:00:30;;;;;;;56.80;8.50;;;;;;;22.99;58.56;100189.13;6188458;23;20024;-88
2022/08/08 15:02:58;;;;;;;43.10;7.75;;;;;;;22.85;59.02;100180.53;6162992;23;20060;-92
2022/08/08 15:05:29;;;;;;;34.67;6.63;;;;;;;22.77;59.33;100174.03;6187689;23;20017;-92
2022/08/08 15:07:56;;;;;;;41.47;7.68;;;;;;;22.85;59.09;100192.50;6184444;23;20024;-89
2022/08/08 15:10:23;;;;;;;68.20;9.50;;;;;;;22.58;58.97;100154.59;6160718;23;20020;-90
2022/08/08 15:12:51;;;;;;;34.95;7.10;;;;;;;22.58;58.03;100141.47;6179090;23;20021;-94
2022/08/08 15:15:19;;;;;;;58.28;8.13;;;;;;;23.04;58.18;100194.38;6187416;23;20016;-92
2022/08/08 15:17:57;;;;;;;35.50;7.25;;;;;;;23.04;57.10;100174.84;6163613;23;20027;-91
2022/08/08 15:23:16;;;;;;;22.10;6.03;;;;;;;23.27;57.66;100185.13;6164156;23;20021;-90
2022/08/08 15:25:43;;;;;;;24.95;5.85;;;;;;;23.08;57.73;100194.44;6140946;23;20021;-93
2022/08/08 15:28:16;;;;;;;11.95;5.95;;;;;;;23.11;57.35;100176.94;6189903;23;20021;-91
2022/08/08 15:30:43;;;;;;;16.48;5.93;;;;;;;23.00;57.23;100114.66;6212913;23;20488;-93
2022/08/08 15:33:15;;;;;;;54.85;7.57;;;;;;;23.60;56.73;100189.97;6193011;23;20023;-91
2022/08/08 15:35:41;;;;;;;48.53;8.75;;;;;;;23.13;57.37;100169.81;6142921;23;20024;-89
2022/08/08 15:38:09;;;;;;;40.72;6.68;;;;;;;22.95;57.82;100164.00;6164753;23;20481;-92
2022/08/08 15:41:31;;;;;;;24.50;6.07;;;;;;;23.08;58.29;100206.41;6217375;23;20021;-92
2022/08/08 15:44:26;;;;;;;32.50;6.60;;;;;;;22.91;58.31;100202.16;6217220;23;20023;-92
2022/08/08 15:46:55;;;;;;;58.30;8.48;;;;;;;22.89;58.34;100176.63;6167438;23;20023;-93
2022/08/08 15:49:24;;;;;;;51.45;6.95;;;;;;;22.96;57.27;100189.88;6156340;23;20050;-92
2022/08/08 15:52:13;;;;;;;52.50;6.97;;;;;;;22.77;58.43;100171.25;6073989;23;20026;-91
2022/08/08 15:54:42;;;;;;;49.95;7.97;;;;;;;22.73;57.99;100162.03;6075519;23;20032;-92
2022/08/08 15:57:32;;;;;;;44.45;7.45;;;;;;;22.80;58.35;100181.66;6100219;23;20114;-93
2022/08/08 16:00:22;;;;;;;30.65;6.90;;;;;;;22.93;58.28;100207.38;6081477;23;20022;-93
2022/08/08 16:02:51;;;;;;;25.88;6.25;;;;;;;22.85;58.00;100200.84;6079465;23;20022;-90
2022/08/08 16:05:21;;;;;;;27.55;6.57;;;;;;;22.84;58.79;100202.00;6076761;23;20551;-90
2022/08/08 16:07:47;;;;;;;26.08;6.65;;;;;;;22.70;59.04;100196.22;6078419;23;20045;-92
2022/08/08 16:10:13;;;;;;;37.22;7.88;;;;;;;22.59;58.91;100186.88;6101881;23;20018;-91
2022/08/08 16:12:49;;;;;;;44.10;8.27;;;;;;;22.35;59.44;100155.47;6079029;23;20034;-92
2022/08/08 16:15:16;;;;;;;43.70;6.50;;;;;;;22.69;59.06;100205.78;6102989;23;20018;-94
2022/08/08 16:17:42;;;;;;;46.58;7.40;;;;;;;22.19;59.76;100152.78;6080018;23;20455;-93
2022/08/08 16:24:12;;;;;;;49.20;6.80;;;;;;;22.44;60.01;100199.75;6130919;23;20212;-91
2022/08/08 16:26:53;;;;;;;24.15;5.43;;;;;;;21.96;60.37;100135.25;6162994;23;20021;-94
2022/08/08 16:29:42;;;;;;;22.83;5.57;;;;;;;22.19;60.64;100205.72;6130071;23;20045;-93
2022/08/08 16:32:15;;;;;;;15.15;5.32;;;;;;;21.86;61.25;100158.13;6082563;23;20124;-92
2022/08/08 16:35:02;;;;;;;15.88;5.00;;;;;;;21.87;60.77;100170.84;6130212;23;20043;-92
2022/08/08 16:37:29;;;;;;;22.80;4.85;;;;;;;21.99;60.59;100190.19;6082324;23;20021;-91
2022/08/08 16:42:51;;;;;;;18.00;4.57;;;;;;;21.86;60.72;100203.47;6170061;23;20043;-92
2022/08/08 16:45:40;;;;;;;21.35;4.70;;;;;;;21.41;60.64;100142.91;6198242;22;20028;-94
2022/08/08 16:48:06;;;;;;;18.55;4.80;;;;;;;21.65;60.95;100189.91;6201182;22;20043;-93
2022/08/08 16:51:00;;;;;;;26.60;5.20;;;;;;;21.83;61.59;100223.69;6226083;22;20462;-94
2022/08/08 16:54:08;;;;;;;15.38;5.25;;;;;;;21.33;61.23;100164.19;6216489;23;20103;-93
2022/08/08 16:56:59;;;;;;;21.10;5.15;;;;;;;21.73;61.64;100238.19;6169444;23;20039;-94
2022/08/08 16:59:26;;;;;;;16.77;4.65;;;;;;;21.23;61.75;100176.69;6197615;23;20107;-94
2022/08/08 17:01:54;;;;;;;23.52;5.28;;;;;;;21.55;62.24;100241.38;6172854;23;20017;-95
2022/08/08 17:04:22;;;;;;;25.33;5.88;;;;;;;20.96;62.42;100155.41;6197441;23;20016;-95
2022/08/08 17:06:49;;;;;;;16.85;5.18;;;;;;;21.35;63.08;100209.94;6196009;23;20013;-94
2022/08/08 17:09:23;;;;;;;21.77;5.55;;;;;;;21.14;62.79;100181.63;6197614;23;20040;-94
2022/08/08 17:11:50;;;;;;;13.45;5.78;;;;;;;21.47;62.79;100239.63;6171137;23;20031;-94
2022/08/08 17:14:45;;;;;;;11.77;5.25;;;;;;;21.45;63.58;100241.94;6171843;23;20036;-94
2022/08/08 17:17:12;;;;;;;34.53;6.00;;;;;;;21.16;63.36;100204.34;6196752;23;20024;-92
2022/08/08 17:19:57;;;;;;;34.10;6.22;;;;;;;21.43;63.73;100251.84;6169061;23;20039;-94
2022/08/08 17:22:23;;;;;;;23.65;5.72;;;;;;;21.34;64.70;100257.56;6194648;23;20017;-93
2022/08/08 17:24:50;;;;;;;16.45;5.93;;;;;;;21.13;63.49;100218.97;6170807;23;20020;-93
2022/08/08 17:30:40;;;;;;;16.42;5.60;;;;;;;21.15;64.65;100213.81;6283773;22;20028;-94
2022/08/08 17:33:14;;;;;;;16.05;6.22;;;;;;;21.20;64.60;100221.09;6229959;22;20445;-93
2022/08/08 17:36:08;;;;;;;22.95;6.80;;;;;;;21.30;64.83;100234.44;6228974;22;20098;-94
2022/08/08 17:38:58;;;;;;;21.85;6.80;;;;;;;21.18;65.38;100209.53;6145353;23;20017;-92
2022/08/08 17:45:33;;;;;;;;;;;;;;;21.40;63.60;100245.03;6138142;23;20064;-91
2022/08/08 17:48:02;;;;;;;20.38;6.07;;;;;;;21.11;65.41;100218.50;6137023;23;19970;-93
2022/08/08 17:50:44;;;;;;;26.95;5.93;;;;;;;20.70;65.32;100151.25;6137668;23;20022;-94